sensor_id;sensor_type;location;lat;lon;timestamp;temperature;humidity
16301;DHT22;8258;51.020;4.248;2023-07-31T00:23:27;16.90;99.90
16301;DHT22;8258;51.020;4.248;2023-07-31T00:25:54;16.90;99.90
16301;DHT22;8258;51.020;4.248;2023-07-31T00:28:21;16.90;99.90
16301;DHT22;8258;51.020;4.248;2023-07-31T00:30:48;16.90;99.90
16301;DHT22;8258;51.020;4.248;2023-07-31T00:33:15;16.90;99.90
16301;DHT22;8258;51.020;4.248;2023-07-31T00:35:42;16.90;99.90
16301;DHT22;8258;51.020;4.248;2023-07-31T00:38:09;16.90;99.90
16301;DHT22;8258;51.020;4.248;2023-07-31T00:40:37;16.90;99.90
16301;DHT22;8258;51.020;4.248;2023-07-31T00:43:04;16.90;99.90
16301;DHT22;8258;51.020;4.248;2023-07-31T00:45:31;16.90;99.90
16301;DHT22;8258;51.020;4.248;2023-07-31T00:47:59;16.90;99.90
16301;DHT22;8258;51.020;4.248;2023-07-31T00:50:27;16.90;99.90
16301;DHT22;8258;51.020;4.248;2023-07-31T00:52:55;16.90;99.90
16301;DHT22;8258;51.020;4.248;2023-07-31T00:55:22;16.90;99.90
16301;DHT22;8258;51.020;4.248;2023-07-31T00:57:51;16.90;99.90
16301;DHT22;8258;51.020;4.248;2023-07-31T01:00:21;16.90;99.90
16301;DHT22;8258;51.020;4.248;2023-07-31T01:02:49;16.90;99.90
16301;DHT22;8258;51.020;4.248;2023-07-31T01:05:17;16.90;99.90
16301;DHT22;8258;51.020;4.248;2023-07-31T01:07:51;16.90;99.90
16301;DHT22;8258;51.020;4.248;2023-07-31T01:10:21;16.90;99.90
16301;DHT22;8258;51.020;4.248;2023-07-31T01:12:51;16.90;99.90
16301;DHT22;8258;51.020;4.248;2023-07-31T01:15:21;16.80;99.90
16301;DHT22;8258;51.020;4.248;2023-07-31T01:17:48;16.80;99.90
16301;DHT22;8258;51.020;4.248;2023-07-31T01:20:18;16.80;99.90
16301;DHT22;8258;51.020;4.248;2023-07-31T01:26:01;16.80;99.90
16301;DHT22;8258;51.020;4.248;2023-07-31T01:28:36;16.90;99.90
16301;DHT22;8258;51.020;4.248;2023-07-31T01:31:07;16.80;99.90
16301;DHT22;8258;51.020;4.248;2023-07-31T01:33:35;16.90;99.90
16301;DHT22;8258;51.020;4.248;2023-07-31T01:36:04;16.90;99.90
16301;DHT22;8258;51.020;4.248;2023-07-31T01:38:31;16.90;99.90
16301;DHT22;8258;51.020;4.248;2023-07-31T01:40:59;16.90;99.90
16301;DHT22;8258;51.020;4.248;2023-07-31T01:43:26;17.00;99.90
16301;DHT22;8258;51.020;4.248;2023-07-31T01:45:53;17.00;99.90
16301;DHT22;8258;51.020;4.248;2023-07-31T01:48:20;17.00;99.90
16301;DHT22;8258;51.020;4.248;2023-07-31T01:50:48;17.00;99.90
16301;DHT22;8258;51.020;4.248;2023-07-31T01:53:15;17.10;99.90
16301;DHT22;8258;51.020;4.248;2023-07-31T01:55:42;17.00;99.90
16301;DHT22;8258;51.020;4.248;2023-07-31T01:58:11;17.00;99.90
16301;DHT22;8258;51.020;4.248;2023-07-31T02:00:38;17.00;99.90
16301;DHT22;8258;51.020;4.248;2023-07-31T02:03:05;17.00;99.90
16301;DHT22;8258;51.020;4.248;2023-07-31T02:05:32;17.00;99.90
16301;DHT22;8258;51.020;4.248;2023-07-31T02:08:00;17.00;99.90
16301;DHT22;8258;51.020;4.248;2023-07-31T02:10:30;17.00;99.90
16301;DHT22;8258;51.020;4.248;2023-07-31T02:12:57;17.00;99.90
16301;DHT22;8258;51.020;4.248;2023-07-31T02:15:25;17.00;99.90
16301;DHT22;8258;51.020;4.248;2023-07-31T02:17:52;17.00;99.90
16301;DHT22;8258;51.020;4.248;2023-07-31T02:20:19;17.10;99.90
16301;DHT22;8258;51.020;4.248;2023-07-31T02:22:46;17.00;99.90
16301;DHT22;8258;51.020;4.248;2023-07-31T02:25:13;17.00;99.90
16301;DHT22;8258;51.020;4.248;2023-07-31T02:27:41;17.00;99.90
16301;DHT22;8258;51.020;4.248;2023-07-31T02:30:09;17.00;99.90
16301;DHT22;8258;51.020;4.248;2023-07-31T02:32:37;17.00;99.90
16301;DHT22;8258;51.020;4.248;2023-07-31T02:35:05;17.00;99.90
16301;DHT22;8258;51.020;4.248;2023-07-31T02:37:34;17.10;99.90
16301;DHT22;8258;51.020;4.248;2023-07-31T02:40:01;17.00;99.90
16301;DHT22;8258;51.020;4.248;2023-07-31T02:42:29;17.10;99.90
16301;DHT22;8258;51.020;4.248;2023-07-31T02:44:56;17.10;99.90
16301;DHT22;8258;51.020;4.248;2023-07-31T02:47:23;17.00;99.90
16301;DHT22;8258;51.020;4.248;2023-07-31T02:49:51;17.10;99.90
16301;DHT22;8258;51.020;4.248;2023-07-31T02:52:18;17.10;99.90
16301;DHT22;8258;51.020;4.248;2023-07-31T02:54:45;17.10;99.90
16301;DHT22;8258;51.020;4.248;2023-07-31T02:57:12;17.10;99.90
16301;DHT22;8258;51.020;4.248;2023-07-31T02:59:39;17.10;99.90
16301;DHT22;8258;51.020;4.248;2023-07-31T03:02:06;17.10;99.90
16301;DHT22;8258;51.020;4.248;2023-07-31T03:04:35;17.10;99.90
16301;DHT22;8258;51.020;4.248;2023-07-31T03:07:04;17.10;99.90
16301;DHT22;8258;51.020;4.248;2023-07-31T03:09:31;17.10;99.90
16301;DHT22;8258;51.020;4.248;2023-07-31T03:11:58;17.10;99.90
16301;DHT22;8258;51.020;4.248;2023-07-31T03:14:25;17.10;99.90
16301;DHT22;8258;51.020;4.248;2023-07-31T03:16:53;17.10;99.90
16301;DHT22;8258;51.020;4.248;2023-07-31T03:19:20;17.10;99.90
16301;DHT22;8258;51.020;4.248;2023-07-31T03:21:48;17.10;99.90
16301;DHT22;8258;51.020;4.248;2023-07-31T03:24:17;17.00;99.90
16301;DHT22;8258;51.020;4.248;2023-07-31T03:26:44;16.90;99.90
16301;DHT22;8258;51.020;4.248;2023-07-31T03:29:11;17.00;99.90
16301;DHT22;8258;51.020;4.248;2023-07-31T03:31:38;17.00;99.90
16301;DHT22;8258;51.020;4.248;2023-07-31T03:34:05;17.00;99.90
16301;DHT22;8258;51.020;4.248;2023-07-31T03:36:32;17.00;99.90
16301;DHT22;8258;51.020;4.248;2023-07-31T03:38:59;17.00;99.90
16301;DHT22;8258;51.020;4.248;2023-07-31T03:41:27;16.90;99.90
16301;DHT22;8258;51.020;4.248;2023-07-31T03:43:54;16.90;99.90
16301;DHT22;8258;51.020;4.248;2023-07-31T03:46:22;16.90;99.90
16301;DHT22;8258;51.020;4.248;2023-07-31T03:48:50;16.70;99.90
16301;DHT22;8258;51.020;4.248;2023-07-31T03:51:17;16.60;99.90
16301;DHT22;8258;51.020;4.248;2023-07-31T03:53:45;16.60;99.90
16301;DHT22;8258;51.020;4.248;2023-07-31T03:56:13;16.50;99.90
16301;DHT22;8258;51.020;4.248;2023-07-31T03:58:41;16.50;99.90
16301;DHT22;8258;51.020;4.248;2023-07-31T04:01:08;16.40;99.90
16301;DHT22;8258;51.020;4.248;2023-07-31T04:03:35;16.40;99.90
16301;DHT22;8258;51.020;4.248;2023-07-31T04:06:02;16.40;99.90
16301;DHT22;8258;51.020;4.248;2023-07-31T04:08:29;16.30;99.90
16301;DHT22;8258;51.020;4.248;2023-07-31T04:10:56;16.30;99.90
16301;DHT22;8258;51.020;4.248;2023-07-31T04:13:23;16.30;99.90
16301;DHT22;8258;51.020;4.248;2023-07-31T04:15:54;16.30;99.90
16301;DHT22;8258;51.020;4.248;2023-07-31T04:18:24;16.20;99.90
16301;DHT22;8258;51.020;4.248;2023-07-31T04:20:52;16.20;99.90
16301;DHT22;8258;51.020;4.248;2023-07-31T04:23:20;16.20;99.90
16301;DHT22;8258;51.020;4.248;2023-07-31T04:25:47;16.20;99.90
16301;DHT22;8258;51.020;4.248;2023-07-31T04:28:16;16.30;99.90
16301;DHT22;8258;51.020;4.248;2023-07-31T04:30:43;16.20;99.90
16301;DHT22;8258;51.020;4.248;2023-07-31T04:33:17;16.30;99.90
16301;DHT22;8258;51.020;4.248;2023-07-31T04:35:49;16.20;99.90
16301;DHT22;8258;51.020;4.248;2023-07-31T04:38:18;16.20;99.90
16301;DHT22;8258;51.020;4.248;2023-07-31T04:40:46;16.20;99.90
16301;DHT22;8258;51.020;4.248;2023-07-31T04:43:14;16.20;99.90
16301;DHT22;8258;51.020;4.248;2023-07-31T04:45:45;16.30;99.90
16301;DHT22;8258;51.020;4.248;2023-07-31T04:48:23;16.30;99.90
16301;DHT22;8258;51.020;4.248;2023-07-31T04:50:50;16.30;99.90
16301;DHT22;8258;51.020;4.248;2023-07-31T04:53:21;16.30;99.90
16301;DHT22;8258;51.020;4.248;2023-07-31T04:55:48;16.30;99.90
16301;DHT22;8258;51.020;4.248;2023-07-31T04:58:15;16.30;99.90
16301;DHT22;8258;51.020;4.248;2023-07-31T05:00:42;16.30;99.90
16301;DHT22;8258;51.020;4.248;2023-07-31T05:03:09;16.20;99.90
16301;DHT22;8258;51.020;4.248;2023-07-31T05:05:38;16.20;99.90
16301;DHT22;8258;51.020;4.248;2023-07-31T05:08:05;16.20;99.90
16301;DHT22;8258;51.020;4.248;2023-07-31T05:10:32;16.20;99.90
16301;DHT22;8258;51.020;4.248;2023-07-31T05:12:59;16.20;99.90
16301;DHT22;8258;51.020;4.248;2023-07-31T05:15:26;16.20;99.90
16301;DHT22;8258;51.020;4.248;2023-07-31T05:17:53;16.20;99.90
16301;DHT22;8258;51.020;4.248;2023-07-31T05:20:20;16.20;99.90
16301;DHT22;8258;51.020;4.248;2023-07-31T05:22:50;16.20;99.90
16301;DHT22;8258;51.020;4.248;2023-07-31T05:25:18;16.20;99.90
16301;DHT22;8258;51.020;4.248;2023-07-31T05:27:45;16.20;99.90
16301;DHT22;8258;51.020;4.248;2023-07-31T05:30:12;16.20;99.90
16301;DHT22;8258;51.020;4.248;2023-07-31T05:32:39;16.20;99.90
16301;DHT22;8258;51.020;4.248;2023-07-31T05:35:06;16.10;99.90
16301;DHT22;8258;51.020;4.248;2023-07-31T05:37:35;16.10;99.90
16301;DHT22;8258;51.020;4.248;2023-07-31T05:40:05;16.10;99.90
16301;DHT22;8258;51.020;4.248;2023-07-31T05:42:33;16.20;99.90
16301;DHT22;8258;51.020;4.248;2023-07-31T05:45:02;16.10;99.90
16301;DHT22;8258;51.020;4.248;2023-07-31T05:47:29;16.20;99.90
16301;DHT22;8258;51.020;4.248;2023-07-31T05:49:56;16.20;99.90
16301;DHT22;8258;51.020;4.248;2023-07-31T05:52:24;16.20;99.90
16301;DHT22;8258;51.020;4.248;2023-07-31T05:54:51;16.20;99.90
16301;DHT22;8258;51.020;4.248;2023-07-31T05:57:19;16.20;99.90
16301;DHT22;8258;51.020;4.248;2023-07-31T05:59:47;16.20;99.90
16301;DHT22;8258;51.020;4.248;2023-07-31T06:02:14;16.20;99.90
16301;DHT22;8258;51.020;4.248;2023-07-31T06:04:41;16.20;99.90
16301;DHT22;8258;51.020;4.248;2023-07-31T06:07:08;16.30;99.90
16301;DHT22;8258;51.020;4.248;2023-07-31T06:09:36;16.40;99.90
16301;DHT22;8258;51.020;4.248;2023-07-31T06:12:04;16.40;99.90
16301;DHT22;8258;51.020;4.248;2023-07-31T06:14:36;16.40;99.90
16301;DHT22;8258;51.020;4.248;2023-07-31T06:22:19;16.50;99.90
16301;DHT22;8258;51.020;4.248;2023-07-31T06:24:50;16.50;99.90
16301;DHT22;8258;51.020;4.248;2023-07-31T06:35:24;16.60;99.90
16301;DHT22;8258;51.020;4.248;2023-07-31T06:37:51;16.60;99.90
16301;DHT22;8258;51.020;4.248;2023-07-31T06:40:18;16.60;99.90
16301;DHT22;8258;51.020;4.248;2023-07-31T06:42:45;16.60;99.90
16301;DHT22;8258;51.020;4.248;2023-07-31T06:45:11;16.60;99.90
16301;DHT22;8258;51.020;4.248;2023-07-31T06:47:38;16.70;99.90
16301;DHT22;8258;51.020;4.248;2023-07-31T06:50:06;16.80;99.90
16301;DHT22;8258;51.020;4.248;2023-07-31T06:52:35;16.90;99.90
16301;DHT22;8258;51.020;4.248;2023-07-31T06:55:04;17.10;99.90
16301;DHT22;8258;51.020;4.248;2023-07-31T06:57:42;17.20;99.90
16301;DHT22;8258;51.020;4.248;2023-07-31T07:02:48;17.60;99.90
16301;DHT22;8258;51.020;4.248;2023-07-31T07:05:16;17.80;99.90
16301;DHT22;8258;51.020;4.248;2023-07-31T07:07:45;17.80;99.90
16301;DHT22;8258;51.020;4.248;2023-07-31T07:10:12;17.90;99.90
16301;DHT22;8258;51.020;4.248;2023-07-31T07:12:40;17.90;99.90
16301;DHT22;8258;51.020;4.248;2023-07-31T07:15:07;17.80;99.90
16301;DHT22;8258;51.020;4.248;2023-07-31T07:17:34;17.70;99.90
16301;DHT22;8258;51.020;4.248;2023-07-31T07:20:01;17.70;99.90
16301;DHT22;8258;51.020;4.248;2023-07-31T07:22:29;17.70;99.90
16301;DHT22;8258;51.020;4.248;2023-07-31T07:24:57;17.60;99.90
16301;DHT22;8258;51.020;4.248;2023-07-31T07:27:24;17.60;99.90
16301;DHT22;8258;51.020;4.248;2023-07-31T07:29:51;17.50;99.90
16301;DHT22;8258;51.020;4.248;2023-07-31T07:32:19;17.50;99.90
16301;DHT22;8258;51.020;4.248;2023-07-31T07:34:48;17.40;99.90
16301;DHT22;8258;51.020;4.248;2023-07-31T07:37:15;17.50;99.90
16301;DHT22;8258;51.020;4.248;2023-07-31T07:39:42;17.50;99.90
16301;DHT22;8258;51.020;4.248;2023-07-31T07:42:11;17.50;99.90
16301;DHT22;8258;51.020;4.248;2023-07-31T07:44:39;17.60;99.90
16301;DHT22;8258;51.020;4.248;2023-07-31T07:47:06;17.70;99.90
16301;DHT22;8258;51.020;4.248;2023-07-31T07:49:34;17.80;99.90
16301;DHT22;8258;51.020;4.248;2023-07-31T07:52:01;17.90;99.90
16301;DHT22;8258;51.020;4.248;2023-07-31T07:54:28;18.10;99.90
16301;DHT22;8258;51.020;4.248;2023-07-31T07:56:57;18.20;99.90
16301;DHT22;8258;51.020;4.248;2023-07-31T07:59:25;18.40;99.90
16301;DHT22;8258;51.020;4.248;2023-07-31T08:01:52;18.60;99.90
16301;DHT22;8258;51.020;4.248;2023-07-31T08:04:20;18.90;99.90
16301;DHT22;8258;51.020;4.248;2023-07-31T08:06:47;19.10;99.90
16301;DHT22;8258;51.020;4.248;2023-07-31T08:09:13;19.10;99.90
16301;DHT22;8258;51.020;4.248;2023-07-31T08:11:40;19.00;99.90
16301;DHT22;8258;51.020;4.248;2023-07-31T08:14:07;19.00;99.90
16301;DHT22;8258;51.020;4.248;2023-07-31T08:16:37;19.00;99.90
16301;DHT22;8258;51.020;4.248;2023-07-31T08:19:05;18.80;99.90
16301;DHT22;8258;51.020;4.248;2023-07-31T08:21:32;18.40;99.90
16301;DHT22;8258;51.020;4.248;2023-07-31T08:23:59;18.30;99.90
16301;DHT22;8258;51.020;4.248;2023-07-31T08:26:26;18.30;99.90
16301;DHT22;8258;51.020;4.248;2023-07-31T08:28:53;18.50;99.90
16301;DHT22;8258;51.020;4.248;2023-07-31T08:31:20;18.60;99.90
16301;DHT22;8258;51.020;4.248;2023-07-31T08:33:48;18.70;99.90
16301;DHT22;8258;51.020;4.248;2023-07-31T08:36:15;18.80;99.90
16301;DHT22;8258;51.020;4.248;2023-07-31T08:38:42;18.80;99.90
16301;DHT22;8258;51.020;4.248;2023-07-31T08:41:09;18.90;99.90
16301;DHT22;8258;51.020;4.248;2023-07-31T08:43:37;18.80;99.90
16301;DHT22;8258;51.020;4.248;2023-07-31T08:46:05;18.90;99.90
16301;DHT22;8258;51.020;4.248;2023-07-31T08:48:32;19.00;99.90
16301;DHT22;8258;51.020;4.248;2023-07-31T08:51:00;19.00;99.90
16301;DHT22;8258;51.020;4.248;2023-07-31T08:53:28;19.00;99.90
16301;DHT22;8258;51.020;4.248;2023-07-31T08:55:55;18.70;99.90
16301;DHT22;8258;51.020;4.248;2023-07-31T08:58:24;18.70;99.90
16301;DHT22;8258;51.020;4.248;2023-07-31T09:00:52;19.10;99.90
16301;DHT22;8258;51.020;4.248;2023-07-31T09:03:23;19.30;99.90
16301;DHT22;8258;51.020;4.248;2023-07-31T09:05:51;19.30;99.90
16301;DHT22;8258;51.020;4.248;2023-07-31T09:08:21;19.40;99.90
16301;DHT22;8258;51.020;4.248;2023-07-31T09:10:48;19.60;99.90
16301;DHT22;8258;51.020;4.248;2023-07-31T09:13:16;19.90;99.90
16301;DHT22;8258;51.020;4.248;2023-07-31T09:15:45;19.90;99.90
16301;DHT22;8258;51.020;4.248;2023-07-31T09:18:12;19.70;99.90
16301;DHT22;8258;51.020;4.248;2023-07-31T09:20:40;19.60;99.90
16301;DHT22;8258;51.020;4.248;2023-07-31T09:23:08;19.40;99.90
16301;DHT22;8258;51.020;4.248;2023-07-31T09:25:37;19.20;99.90
16301;DHT22;8258;51.020;4.248;2023-07-31T09:28:06;19.00;99.90
16301;DHT22;8258;51.020;4.248;2023-07-31T09:30:46;18.90;99.90
16301;DHT22;8258;51.020;4.248;2023-07-31T09:33:13;18.90;99.90
16301;DHT22;8258;51.020;4.248;2023-07-31T09:35:41;18.80;99.90
16301;DHT22;8258;51.020;4.248;2023-07-31T09:38:10;18.70;99.90
16301;DHT22;8258;51.020;4.248;2023-07-31T09:40:40;18.70;99.90
16301;DHT22;8258;51.020;4.248;2023-07-31T09:43:09;18.70;99.90
16301;DHT22;8258;51.020;4.248;2023-07-31T09:45:38;18.60;99.90
16301;DHT22;8258;51.020;4.248;2023-07-31T09:48:07;18.50;99.90
16301;DHT22;8258;51.020;4.248;2023-07-31T09:50:37;18.40;99.90
16301;DHT22;8258;51.020;4.248;2023-07-31T09:53:05;18.40;99.90
16301;DHT22;8258;51.020;4.248;2023-07-31T09:55:32;18.40;99.90
16301;DHT22;8258;51.020;4.248;2023-07-31T09:58:03;18.50;99.90
16301;DHT22;8258;51.020;4.248;2023-07-31T10:00:31;18.40;99.90
16301;DHT22;8258;51.020;4.248;2023-07-31T10:02:59;18.40;99.90
16301;DHT22;8258;51.020;4.248;2023-07-31T10:05:31;18.40;99.90
16301;DHT22;8258;51.020;4.248;2023-07-31T10:08:00;18.50;99.90
16301;DHT22;8258;51.020;4.248;2023-07-31T10:10:28;18.60;99.90
16301;DHT22;8258;51.020;4.248;2023-07-31T10:12:56;18.50;99.90
16301;DHT22;8258;51.020;4.248;2023-07-31T10:15:25;18.40;99.90
16301;DHT22;8258;51.020;4.248;2023-07-31T10:17:54;18.30;99.90
16301;DHT22;8258;51.020;4.248;2023-07-31T10:20:22;18.40;99.90
16301;DHT22;8258;51.020;4.248;2023-07-31T10:22:51;18.50;99.90
16301;DHT22;8258;51.020;4.248;2023-07-31T10:25:19;18.60;99.90
16301;DHT22;8258;51.020;4.248;2023-07-31T10:27:49;18.60;99.90
16301;DHT22;8258;51.020;4.248;2023-07-31T10:30:20;18.60;99.90
16301;DHT22;8258;51.020;4.248;2023-07-31T10:32:49;18.60;99.90
16301;DHT22;8258;51.020;4.248;2023-07-31T10:35:17;18.80;99.90
16301;DHT22;8258;51.020;4.248;2023-07-31T10:37:44;18.90;99.90
16301;DHT22;8258;51.020;4.248;2023-07-31T10:40:17;18.80;99.90
16301;DHT22;8258;51.020;4.248;2023-07-31T10:42:47;18.70;99.90
16301;DHT22;8258;51.020;4.248;2023-07-31T10:45:24;18.70;99.90
16301;DHT22;8258;51.020;4.248;2023-07-31T10:47:58;18.60;99.90
16301;DHT22;8258;51.020;4.248;2023-07-31T10:50:28;18.60;99.90
16301;DHT22;8258;51.020;4.248;2023-07-31T10:52:56;18.70;99.90
16301;DHT22;8258;51.020;4.248;2023-07-31T10:55:26;18.80;99.90
16301;DHT22;8258;51.020;4.248;2023-07-31T10:57:54;18.90;99.90
16301;DHT22;8258;51.020;4.248;2023-07-31T11:00:23;19.10;99.90
16301;DHT22;8258;51.020;4.248;2023-07-31T11:03:02;19.20;99.90
16301;DHT22;8258;51.020;4.248;2023-07-31T11:05:51;19.30;99.90
16301;DHT22;8258;51.020;4.248;2023-07-31T11:08:21;19.30;99.90
16301;DHT22;8258;51.020;4.248;2023-07-31T11:10:50;19.40;99.90
16301;DHT22;8258;51.020;4.248;2023-07-31T11:13:17;19.60;99.90
16301;DHT22;8258;51.020;4.248;2023-07-31T11:15:44;19.70;99.90
16301;DHT22;8258;51.020;4.248;2023-07-31T11:18:12;19.70;99.90
16301;DHT22;8258;51.020;4.248;2023-07-31T11:20:40;19.60;99.90
16301;DHT22;8258;51.020;4.248;2023-07-31T11:23:09;19.60;99.90
16301;DHT22;8258;51.020;4.248;2023-07-31T11:25:37;19.60;99.90
16301;DHT22;8258;51.020;4.248;2023-07-31T11:28:06;19.70;99.90
16301;DHT22;8258;51.020;4.248;2023-07-31T11:30:34;19.80;99.90
16301;DHT22;8258;51.020;4.248;2023-07-31T11:33:02;19.80;99.90
16301;DHT22;8258;51.020;4.248;2023-07-31T11:35:32;19.90;99.90
16301;DHT22;8258;51.020;4.248;2023-07-31T11:38:00;19.90;99.90
16301;DHT22;8258;51.020;4.248;2023-07-31T11:40:27;19.80;99.90
16301;DHT22;8258;51.020;4.248;2023-07-31T11:42:56;19.70;99.90
16301;DHT22;8258;51.020;4.248;2023-07-31T11:45:25;19.70;99.90
16301;DHT22;8258;51.020;4.248;2023-07-31T11:47:54;19.80;99.90
16301;DHT22;8258;51.020;4.248;2023-07-31T11:50:22;19.70;99.90
16301;DHT22;8258;51.020;4.248;2023-07-31T11:52:55;19.60;99.90
16301;DHT22;8258;51.020;4.248;2023-07-31T11:55:24;19.50;99.90
16301;DHT22;8258;51.020;4.248;2023-07-31T11:57:52;19.30;99.90
16301;DHT22;8258;51.020;4.248;2023-07-31T12:00:19;19.30;99.90
16301;DHT22;8258;51.020;4.248;2023-07-31T12:02:47;19.40;99.90
16301;DHT22;8258;51.020;4.248;2023-07-31T12:05:14;19.60;99.90
16301;DHT22;8258;51.020;4.248;2023-07-31T12:07:46;19.80;99.90
16301;DHT22;8258;51.020;4.248;2023-07-31T12:10:24;20.10;99.90
16301;DHT22;8258;51.020;4.248;2023-07-31T12:13:03;20.30;99.90
16301;DHT22;8258;51.020;4.248;2023-07-31T12:15:38;20.30;99.90
16301;DHT22;8258;51.020;4.248;2023-07-31T12:18:06;20.60;99.90
16301;DHT22;8258;51.020;4.248;2023-07-31T12:20:34;20.70;99.90
16301;DHT22;8258;51.020;4.248;2023-07-31T12:23:02;20.80;99.90
16301;DHT22;8258;51.020;4.248;2023-07-31T12:25:34;20.80;99.90
16301;DHT22;8258;51.020;4.248;2023-07-31T12:28:05;20.80;99.90
16301;DHT22;8258;51.020;4.248;2023-07-31T12:30:37;20.70;99.90
16301;DHT22;8258;51.020;4.248;2023-07-31T12:33:05;20.70;99.90
16301;DHT22;8258;51.020;4.248;2023-07-31T12:35:37;20.50;99.90
16301;DHT22;8258;51.020;4.248;2023-07-31T12:38:04;20.50;99.90
16301;DHT22;8258;51.020;4.248;2023-07-31T12:40:33;20.60;99.90
16301;DHT22;8258;51.020;4.248;2023-07-31T12:43:01;20.80;99.90
16301;DHT22;8258;51.020;4.248;2023-07-31T12:45:29;20.90;99.90
16301;DHT22;8258;51.020;4.248;2023-07-31T12:47:57;20.60;99.90
16301;DHT22;8258;51.020;4.248;2023-07-31T12:50:24;20.60;99.90
16301;DHT22;8258;51.020;4.248;2023-07-31T12:52:51;20.70;99.90
16301;DHT22;8258;51.020;4.248;2023-07-31T12:55:18;20.30;99.90
16301;DHT22;8258;51.020;4.248;2023-07-31T12:57:46;20.00;99.90
16301;DHT22;8258;51.020;4.248;2023-07-31T13:00:14;19.80;99.90
16301;DHT22;8258;51.020;4.248;2023-07-31T13:02:41;19.60;99.90
16301;DHT22;8258;51.020;4.248;2023-07-31T13:05:08;19.40;99.90
16301;DHT22;8258;51.020;4.248;2023-07-31T13:07:35;19.50;99.90
16301;DHT22;8258;51.020;4.248;2023-07-31T13:10:03;19.40;99.90
16301;DHT22;8258;51.020;4.248;2023-07-31T13:12:30;19.10;99.90
16301;DHT22;8258;51.020;4.248;2023-07-31T13:14:58;18.90;99.90
16301;DHT22;8258;51.020;4.248;2023-07-31T13:17:25;18.60;99.90
16301;DHT22;8258;51.020;4.248;2023-07-31T13:19:52;18.60;99.90
16301;DHT22;8258;51.020;4.248;2023-07-31T13:22:19;18.50;99.90
16301;DHT22;8258;51.020;4.248;2023-07-31T13:24:46;18.40;99.90
16301;DHT22;8258;51.020;4.248;2023-07-31T13:27:13;18.40;99.90
16301;DHT22;8258;51.020;4.248;2023-07-31T13:29:42;18.30;99.90
16301;DHT22;8258;51.020;4.248;2023-07-31T13:32:11;18.20;99.90
16301;DHT22;8258;51.020;4.248;2023-07-31T13:34:38;18.20;99.90
16301;DHT22;8258;51.020;4.248;2023-07-31T13:37:05;18.20;99.90
16301;DHT22;8258;51.020;4.248;2023-07-31T13:39:32;18.20;99.90
16301;DHT22;8258;51.020;4.248;2023-07-31T13:41:59;18.20;99.90
16301;DHT22;8258;51.020;4.248;2023-07-31T13:44:27;18.10;99.90
16301;DHT22;8258;51.020;4.248;2023-07-31T13:46:54;18.10;99.90
16301;DHT22;8258;51.020;4.248;2023-07-31T13:49:22;18.00;99.90
16301;DHT22;8258;51.020;4.248;2023-07-31T13:51:50;17.90;99.90
16301;DHT22;8258;51.020;4.248;2023-07-31T13:54:17;18.00;99.90
16301;DHT22;8258;51.020;4.248;2023-07-31T13:56:44;18.00;99.90
16301;DHT22;8258;51.020;4.248;2023-07-31T13:59:11;18.00;99.90
16301;DHT22;8258;51.020;4.248;2023-07-31T14:01:40;17.90;99.90
16301;DHT22;8258;51.020;4.248;2023-07-31T14:04:07;17.90;99.90
16301;DHT22;8258;51.020;4.248;2023-07-31T14:06:36;17.80;99.90
16301;DHT22;8258;51.020;4.248;2023-07-31T14:09:02;17.80;99.90
16301;DHT22;8258;51.020;4.248;2023-07-31T14:11:31;17.80;99.90
16301;DHT22;8258;51.020;4.248;2023-07-31T14:13:58;17.70;99.90
16301;DHT22;8258;51.020;4.248;2023-07-31T14:16:25;17.70;99.90
16301;DHT22;8258;51.020;4.248;2023-07-31T14:18:52;17.70;99.90
16301;DHT22;8258;51.020;4.248;2023-07-31T14:21:19;17.70;99.90
16301;DHT22;8258;51.020;4.248;2023-07-31T14:23:47;17.60;99.90
16301;DHT22;8258;51.020;4.248;2023-07-31T14:26:14;17.60;99.90
16301;DHT22;8258;51.020;4.248;2023-07-31T14:28:42;17.70;99.90
16301;DHT22;8258;51.020;4.248;2023-07-31T14:31:09;17.70;99.90
16301;DHT22;8258;51.020;4.248;2023-07-31T14:33:36;17.70;99.90
16301;DHT22;8258;51.020;4.248;2023-07-31T14:36:03;17.70;99.90
16301;DHT22;8258;51.020;4.248;2023-07-31T14:38:30;17.70;99.90
16301;DHT22;8258;51.020;4.248;2023-07-31T14:40:59;17.70;99.90
16301;DHT22;8258;51.020;4.248;2023-07-31T14:43:26;17.70;99.90
16301;DHT22;8258;51.020;4.248;2023-07-31T14:45:53;17.70;99.90
16301;DHT22;8258;51.020;4.248;2023-07-31T14:48:23;17.70;99.90
16301;DHT22;8258;51.020;4.248;2023-07-31T14:50:50;17.70;99.90
16301;DHT22;8258;51.020;4.248;2023-07-31T14:53:17;17.70;99.90
16301;DHT22;8258;51.020;4.248;2023-07-31T14:55:44;17.70;99.90
16301;DHT22;8258;51.020;4.248;2023-07-31T14:58:12;17.70;99.90
16301;DHT22;8258;51.020;4.248;2023-07-31T15:00:40;17.70;99.90
16301;DHT22;8258;51.020;4.248;2023-07-31T15:03:07;17.70;99.90
16301;DHT22;8258;51.020;4.248;2023-07-31T15:05:34;17.70;99.90
16301;DHT22;8258;51.020;4.248;2023-07-31T15:08:01;17.60;99.90
16301;DHT22;8258;51.020;4.248;2023-07-31T15:10:28;17.60;99.90
16301;DHT22;8258;51.020;4.248;2023-07-31T15:12:55;17.60;99.90
16301;DHT22;8258;51.020;4.248;2023-07-31T15:15:23;17.60;99.90
16301;DHT22;8258;51.020;4.248;2023-07-31T15:17:50;17.60;99.90
16301;DHT22;8258;51.020;4.248;2023-07-31T15:20:17;17.60;99.90
16301;DHT22;8258;51.020;4.248;2023-07-31T15:22:44;17.60;99.90
16301;DHT22;8258;51.020;4.248;2023-07-31T15:25:11;17.70;99.90
16301;DHT22;8258;51.020;4.248;2023-07-31T15:27:38;17.60;99.90
16301;DHT22;8258;51.020;4.248;2023-07-31T15:30:06;17.60;99.90
16301;DHT22;8258;51.020;4.248;2023-07-31T15:32:37;17.60;99.90
16301;DHT22;8258;51.020;4.248;2023-07-31T15:35:05;17.60;99.90
16301;DHT22;8258;51.020;4.248;2023-07-31T15:37:32;17.60;99.90
16301;DHT22;8258;51.020;4.248;2023-07-31T15:39:59;17.60;99.90
16301;DHT22;8258;51.020;4.248;2023-07-31T15:42:26;17.60;99.90
16301;DHT22;8258;51.020;4.248;2023-07-31T15:44:53;17.70;99.90
16301;DHT22;8258;51.020;4.248;2023-07-31T15:47:20;17.70;99.90
16301;DHT22;8258;51.020;4.248;2023-07-31T15:49:48;17.70;99.90
16301;DHT22;8258;51.020;4.248;2023-07-31T15:52:15;17.70;99.90
16301;DHT22;8258;51.020;4.248;2023-07-31T15:54:42;17.70;99.90
16301;DHT22;8258;51.020;4.248;2023-07-31T15:57:09;17.70;99.90
16301;DHT22;8258;51.020;4.248;2023-07-31T15:59:36;17.70;99.90
16301;DHT22;8258;51.020;4.248;2023-07-31T16:02:03;17.70;99.90
16301;DHT22;8258;51.020;4.248;2023-07-31T16:04:31;17.70;99.90
16301;DHT22;8258;51.020;4.248;2023-07-31T16:06:59;17.80;99.90
16301;DHT22;8258;51.020;4.248;2023-07-31T16:09:26;17.80;99.90
16301;DHT22;8258;51.020;4.248;2023-07-31T16:11:53;17.70;99.90
16301;DHT22;8258;51.020;4.248;2023-07-31T16:14:20;17.70;99.90
16301;DHT22;8258;51.020;4.248;2023-07-31T16:16:47;17.80;99.90
16301;DHT22;8258;51.020;4.248;2023-07-31T16:19:14;17.70;99.90
16301;DHT22;8258;51.020;4.248;2023-07-31T16:21:41;17.70;99.90
16301;DHT22;8258;51.020;4.248;2023-07-31T16:24:09;17.70;99.90
16301;DHT22;8258;51.020;4.248;2023-07-31T16:26:36;17.80;99.90
16301;DHT22;8258;51.020;4.248;2023-07-31T16:29:03;17.80;99.90
16301;DHT22;8258;51.020;4.248;2023-07-31T16:31:31;17.70;99.90